sensor_id;sensor_type;location;lat;lon;timestamp;P1;durP1;ratioP1;P2;durP2;ratioP2
351;SDS011;164;50.784;6.496;2023-04-01T00:01:25;4.88;;;1.30;;
351;SDS011;164;50.784;6.496;2023-04-01T00:03:52;2.42;;;0.73;;
351;SDS011;164;50.784;6.496;2023-04-01T00:06:21;3.15;;;1.30;;
351;SDS011;164;50.784;6.496;2023-04-01T00:08:49;3.10;;;1.38;;
351;SDS011;164;50.784;6.496;2023-04-01T00:11:16;3.13;;;1.10;;
351;SDS011;164;50.784;6.496;2023-04-01T00:13:43;2.53;;;0.70;;
351;SDS011;164;50.784;6.496;2023-04-01T00:16:11;4.45;;;1.70;;
351;SDS011;164;50.784;6.496;2023-04-01T00:18:40;4.32;;;0.90;;
351;SDS011;164;50.784;6.496;2023-04-01T00:21:07;5.00;;;0.60;;
351;SDS011;164;50.784;6.496;2023-04-01T00:23:34;0.98;;;0.55;;
351;SDS011;164;50.784;6.496;2023-04-01T00:26:02;2.85;;;0.90;;
351;SDS011;164;50.784;6.496;2023-04-01T00:28:30;3.00;;;1.30;;
351;SDS011;164;50.784;6.496;2023-04-01T00:30:57;5.22;;;1.40;;
351;SDS011;164;50.784;6.496;2023-04-01T00:33:25;3.25;;;1.27;;
351;SDS011;164;50.784;6.496;2023-04-01T00:35:53;4.50;;;2.70;;
351;SDS011;164;50.784;6.496;2023-04-01T00:38:22;1.38;;;0.85;;
351;SDS011;164;50.784;6.496;2023-04-01T00:40:49;1.27;;;0.82;;
351;SDS011;164;50.784;6.496;2023-04-01T00:43:17;3.10;;;1.05;;
351;SDS011;164;50.784;6.496;2023-04-01T00:45:46;2.50;;;1.67;;
351;SDS011;164;50.784;6.496;2023-04-01T00:48:15;2.85;;;1.20;;
351;SDS011;164;50.784;6.496;2023-04-01T00:50:45;1.15;;;1.00;;
351;SDS011;164;50.784;6.496;2023-04-01T00:53:14;3.85;;;1.65;;
351;SDS011;164;50.784;6.496;2023-04-01T00:55:44;4.60;;;1.60;;
351;SDS011;164;50.784;6.496;2023-04-01T00:58:14;2.25;;;0.70;;
351;SDS011;164;50.784;6.496;2023-04-01T01:00:41;4.00;;;1.20;;
351;SDS011;164;50.784;6.496;2023-04-01T01:03:09;1.00;;;0.50;;
351;SDS011;164;50.784;6.496;2023-04-01T01:05:42;1.20;;;0.70;;
351;SDS011;164;50.784;6.496;2023-04-01T01:08:12;3.28;;;1.25;;
351;SDS011;164;50.784;6.496;2023-04-01T01:10:43;2.88;;;0.80;;
351;SDS011;164;50.784;6.496;2023-04-01T01:13:15;2.83;;;1.00;;
351;SDS011;164;50.784;6.496;2023-04-01T01:15:44;2.55;;;0.98;;
351;SDS011;164;50.784;6.496;2023-04-01T01:18:15;1.48;;;0.50;;
351;SDS011;164;50.784;6.496;2023-04-01T01:20:48;3.90;;;1.05;;
351;SDS011;164;50.784;6.496;2023-04-01T01:23:40;2.15;;;0.60;;
351;SDS011;164;50.784;6.496;2023-04-01T01:26:25;6.78;;;2.10;;
351;SDS011;164;50.784;6.496;2023-04-01T01:29:01;2.88;;;1.20;;
351;SDS011;164;50.784;6.496;2023-04-01T01:31:36;1.50;;;0.75;;
351;SDS011;164;50.784;6.496;2023-04-01T01:34:08;1.73;;;0.50;;
351;SDS011;164;50.784;6.496;2023-04-01T01:36:39;1.02;;;0.50;;
351;SDS011;164;50.784;6.496;2023-04-01T01:39:10;2.08;;;0.60;;
351;SDS011;164;50.784;6.496;2023-04-01T01:41:38;3.15;;;0.80;;
351;SDS011;164;50.784;6.496;2023-04-01T01:44:08;3.10;;;1.10;;
351;SDS011;164;50.784;6.496;2023-04-01T01:46:36;0.90;;;0.70;;
351;SDS011;164;50.784;6.496;2023-04-01T01:49:05;0.50;;;0.30;;
351;SDS011;164;50.784;6.496;2023-04-01T01:51:34;0.50;;;0.30;;
351;SDS011;164;50.784;6.496;2023-04-01T01:54:03;0.50;;;0.30;;
351;SDS011;164;50.784;6.496;2023-04-01T01:56:30;0.90;;;0.30;;
351;SDS011;164;50.784;6.496;2023-04-01T01:58:59;2.08;;;0.50;;
351;SDS011;164;50.784;6.496;2023-04-01T02:01:29;2.28;;;0.45;;
351;SDS011;164;50.784;6.496;2023-04-01T02:03:57;1.30;;;0.50;;
351;SDS011;164;50.784;6.496;2023-04-01T02:06:25;1.00;;;0.65;;
351;SDS011;164;50.784;6.496;2023-04-01T02:08:54;0.50;;;0.40;;
351;SDS011;164;50.784;6.496;2023-04-01T02:11:24;1.92;;;0.70;;
351;SDS011;164;50.784;6.496;2023-04-01T02:13:53;0.90;;;0.55;;
351;SDS011;164;50.784;6.496;2023-04-01T02:16:23;2.17;;;0.57;;
351;SDS011;164;50.784;6.496;2023-04-01T02:18:53;1.80;;;0.50;;
351;SDS011;164;50.784;6.496;2023-04-01T02:21:22;2.00;;;1.27;;
351;SDS011;164;50.784;6.496;2023-04-01T02:23:51;2.40;;;0.85;;
351;SDS011;164;50.784;6.496;2023-04-01T02:26:19;4.15;;;1.17;;
351;SDS011;164;50.784;6.496;2023-04-01T02:28:48;2.25;;;0.70;;
351;SDS011;164;50.784;6.496;2023-04-01T02:31:17;3.10;;;1.35;;
351;SDS011;164;50.784;6.496;2023-04-01T02:33:45;8.25;;;2.72;;
351;SDS011;164;50.784;6.496;2023-04-01T02:36:13;3.17;;;1.25;;
351;SDS011;164;50.784;6.496;2023-04-01T02:38:41;2.53;;;1.42;;
351;SDS011;164;50.784;6.496;2023-04-01T02:41:10;2.45;;;1.35;;
351;SDS011;164;50.784;6.496;2023-04-01T02:43:37;4.07;;;1.67;;
351;SDS011;164;50.784;6.496;2023-04-01T02:46:06;2.25;;;1.10;;
351;SDS011;164;50.784;6.496;2023-04-01T02:48:33;3.17;;;0.90;;
351;SDS011;164;50.784;6.496;2023-04-01T02:51:02;2.25;;;0.90;;
351;SDS011;164;50.784;6.496;2023-04-01T02:53:29;4.45;;;1.05;;
351;SDS011;164;50.784;6.496;2023-04-01T02:55:56;1.98;;;1.13;;
351;SDS011;164;50.784;6.496;2023-04-01T02:58:23;1.20;;;0.50;;
351;SDS011;164;50.784;6.496;2023-04-01T03:00:50;1.75;;;0.85;;
351;SDS011;164;50.784;6.496;2023-04-01T03:03:19;2.85;;;1.05;;
351;SDS011;164;50.784;6.496;2023-04-01T03:05:48;2.38;;;0.40;;
351;SDS011;164;50.784;6.496;2023-04-01T03:08:15;0.80;;;0.40;;
351;SDS011;164;50.784;6.496;2023-04-01T03:10:42;0.75;;;0.40;;
351;SDS011;164;50.784;6.496;2023-04-01T03:13:09;4.00;;;1.10;;
351;SDS011;164;50.784;6.496;2023-04-01T03:15:36;0.60;;;0.40;;
351;SDS011;164;50.784;6.496;2023-04-01T03:18:04;2.50;;;0.80;;
351;SDS011;164;50.784;6.496;2023-04-01T03:20:32;0.98;;;0.50;;
351;SDS011;164;50.784;6.496;2023-04-01T03:23:00;0.70;;;0.30;;
351;SDS011;164;50.784;6.496;2023-04-01T03:25:27;3.05;;;0.98;;
351;SDS011;164;50.784;6.496;2023-04-01T03:27:55;3.05;;;0.93;;
351;SDS011;164;50.784;6.496;2023-04-01T03:30:25;0.68;;;0.40;;
351;SDS011;164;50.784;6.496;2023-04-01T03:32:52;1.30;;;0.65;;
351;SDS011;164;50.784;6.496;2023-04-01T03:35:20;1.30;;;0.40;;
351;SDS011;164;50.784;6.496;2023-04-01T03:37:49;1.05;;;0.57;;
351;SDS011;164;50.784;6.496;2023-04-01T03:40:17;1.70;;;0.38;;
351;SDS011;164;50.784;6.496;2023-04-01T03:42:44;2.03;;;0.75;;
351;SDS011;164;50.784;6.496;2023-04-01T03:45:11;1.20;;;1.00;;
351;SDS011;164;50.784;6.496;2023-04-01T03:47:39;1.92;;;0.40;;
351;SDS011;164;50.784;6.496;2023-04-01T03:56:14;3.03;;;1.98;;
351;SDS011;164;50.784;6.496;2023-04-01T03:58:41;0.90;;;0.38;;
351;SDS011;164;50.784;6.496;2023-04-01T04:01:15;1.08;;;0.47;;
351;SDS011;164;50.784;6.496;2023-04-01T04:03:42;1.67;;;0.80;;
351;SDS011;164;50.784;6.496;2023-04-01T04:06:11;1.30;;;0.57;;
351;SDS011;164;50.784;6.496;2023-04-01T04:08:38;2.65;;;0.85;;
351;SDS011;164;50.784;6.496;2023-04-01T04:11:06;1.05;;;0.50;;
351;SDS011;164;50.784;6.496;2023-04-01T04:13:35;0.80;;;0.30;;
351;SDS011;164;50.784;6.496;2023-04-01T04:16:02;3.15;;;0.40;;
351;SDS011;164;50.784;6.496;2023-04-01T04:18:30;0.85;;;0.45;;
351;SDS011;164;50.784;6.496;2023-04-01T04:20:57;0.40;;;0.20;;
351;SDS011;164;50.784;6.496;2023-04-01T04:23:24;2.55;;;0.30;;
351;SDS011;164;50.784;6.496;2023-04-01T04:25:56;1.13;;;0.40;;
351;SDS011;164;50.784;6.496;2023-04-01T04:28:23;0.55;;;0.30;;
351;SDS011;164;50.784;6.496;2023-04-01T04:30:55;0.60;;;0.30;;
351;SDS011;164;50.784;6.496;2023-04-01T04:33:22;1.15;;;0.40;;
351;SDS011;164;50.784;6.496;2023-04-01T04:35:50;1.10;;;0.40;;
351;SDS011;164;50.784;6.496;2023-04-01T04:38:17;0.70;;;0.40;;
351;SDS011;164;50.784;6.496;2023-04-01T04:40:45;1.13;;;0.30;;
351;SDS011;164;50.784;6.496;2023-04-01T04:43:12;0.50;;;0.40;;
351;SDS011;164;50.784;6.496;2023-04-01T04:45:40;0.75;;;0.30;;
351;SDS011;164;50.784;6.496;2023-04-01T04:48:08;0.50;;;0.30;;
351;SDS011;164;50.784;6.496;2023-04-01T04:50:39;1.10;;;0.47;;
351;SDS011;164;50.784;6.496;2023-04-01T04:53:08;0.95;;;0.40;;
351;SDS011;164;50.784;6.496;2023-04-01T04:55:36;0.50;;;0.30;;
351;SDS011;164;50.784;6.496;2023-04-01T04:58:03;0.93;;;0.50;;
351;SDS011;164;50.784;6.496;2023-04-01T05:00:30;0.60;;;0.43;;
351;SDS011;164;50.784;6.496;2023-04-01T05:02:57;0.82;;;0.50;;
351;SDS011;164;50.784;6.496;2023-04-01T05:05:26;0.65;;;0.40;;
351;SDS011;164;50.784;6.496;2023-04-01T05:07:55;0.60;;;0.40;;
351;SDS011;164;50.784;6.496;2023-04-01T05:10:22;0.50;;;0.40;;
351;SDS011;164;50.784;6.496;2023-04-01T05:12:49;0.98;;;0.73;;
351;SDS011;164;50.784;6.496;2023-04-01T05:15:16;0.70;;;0.55;;
351;SDS011;164;50.784;6.496;2023-04-01T05:17:44;0.88;;;0.43;;
351;SDS011;164;50.784;6.496;2023-04-01T05:20:11;0.57;;;0.40;;
351;SDS011;164;50.784;6.496;2023-04-01T05:22:40;0.73;;;0.55;;
351;SDS011;164;50.784;6.496;2023-04-01T05:25:07;0.60;;;0.40;;
351;SDS011;164;50.784;6.496;2023-04-01T05:27:34;0.50;;;0.35;;
351;SDS011;164;50.784;6.496;2023-04-01T05:30:02;1.55;;;0.70;;
351;SDS011;164;50.784;6.496;2023-04-01T05:32:30;1.50;;;0.70;;
351;SDS011;164;50.784;6.496;2023-04-01T05:34:59;0.70;;;0.38;;
351;SDS011;164;50.784;6.496;2023-04-01T05:37:26;0.60;;;0.60;;
351;SDS011;164;50.784;6.496;2023-04-01T05:39:55;0.70;;;0.50;;
351;SDS011;164;50.784;6.496;2023-04-01T05:42:26;0.80;;;0.47;;
351;SDS011;164;50.784;6.496;2023-04-01T05:44:53;0.70;;;0.50;;
351;SDS011;164;50.784;6.496;2023-04-01T05:47:20;0.88;;;0.60;;
351;SDS011;164;50.784;6.496;2023-04-01T05:49:48;1.00;;;0.60;;
351;SDS011;164;50.784;6.496;2023-04-01T05:52:15;0.57;;;0.52;;
351;SDS011;164;50.784;6.496;2023-04-01T05:54:42;0.95;;;0.70;;
351;SDS011;164;50.784;6.496;2023-04-01T05:57:11;1.02;;;0.95;;
351;SDS011;164;50.784;6.496;2023-04-01T05:59:38;1.25;;;1.17;;
351;SDS011;164;50.784;6.496;2023-04-01T06:02:05;1.20;;;1.10;;
351;SDS011;164;50.784;6.496;2023-04-01T06:04:34;2.08;;;1.20;;
351;SDS011;164;50.784;6.496;2023-04-01T06:07:05;1.67;;;1.10;;
351;SDS011;164;50.784;6.496;2023-04-01T06:09:32;2.50;;;2.10;;
351;SDS011;164;50.784;6.496;2023-04-01T06:14:47;1.50;;;1.40;;
351;SDS011;164;50.784;6.496;2023-04-01T06:17:19;1.83;;;1.73;;
351;SDS011;164;50.784;6.496;2023-04-01T06:19:53;2.60;;;2.05;;
351;SDS011;164;50.784;6.496;2023-04-01T06:22:35;3.05;;;1.42;;
351;SDS011;164;50.784;6.496;2023-04-01T06:25:18;1.58;;;1.48;;
351;SDS011;164;50.784;6.496;2023-04-01T06:27:54;1.65;;;1.60;;
351;SDS011;164;50.784;6.496;2023-04-01T06:30:32;1.45;;;1.23;;
351;SDS011;164;50.784;6.496;2023-04-01T06:33:05;4.55;;;1.50;;
351;SDS011;164;50.784;6.496;2023-04-01T06:35:40;1.73;;;1.10;;
351;SDS011;164;50.784;6.496;2023-04-01T06:41:05;1.63;;;1.52;;
351;SDS011;164;50.784;6.496;2023-04-01T06:43:41;1.20;;;1.20;;
351;SDS011;164;50.784;6.496;2023-04-01T06:46:12;0.98;;;0.95;;
351;SDS011;164;50.784;6.496;2023-04-01T06:48:48;1.15;;;1.02;;
351;SDS011;164;50.784;6.496;2023-04-01T06:51:22;2.10;;;1.95;;
351;SDS011;164;50.784;6.496;2023-04-01T06:53:54;2.28;;;1.10;;
351;SDS011;164;50.784;6.496;2023-04-01T06:56:24;1.40;;;1.30;;
351;SDS011;164;50.784;6.496;2023-04-01T06:58:52;1.13;;;1.08;;
351;SDS011;164;50.784;6.496;2023-04-01T07:01:24;1.58;;;1.33;;
351;SDS011;164;50.784;6.496;2023-04-01T07:03:53;5.07;;;1.75;;
351;SDS011;164;50.784;6.496;2023-04-01T07:06:24;1.20;;;1.10;;
351;SDS011;164;50.784;6.496;2023-04-01T07:08:53;2.03;;;1.48;;
351;SDS011;164;50.784;6.496;2023-04-01T07:11:22;1.60;;;1.50;;
351;SDS011;164;50.784;6.496;2023-04-01T07:13:52;1.48;;;1.35;;
351;SDS011;164;50.784;6.496;2023-04-01T07:16:24;1.30;;;1.20;;
351;SDS011;164;50.784;6.496;2023-04-01T07:18:52;1.42;;;1.23;;
351;SDS011;164;50.784;6.496;2023-04-01T07:21:23;2.00;;;1.30;;
351;SDS011;164;50.784;6.496;2023-04-01T07:23:52;1.27;;;1.20;;
351;SDS011;164;50.784;6.496;2023-04-01T07:26:22;1.05;;;0.95;;
351;SDS011;164;50.784;6.496;2023-04-01T07:28:50;1.10;;;1.08;;
351;SDS011;164;50.784;6.496;2023-04-01T07:34:09;0.90;;;0.80;;
351;SDS011;164;50.784;6.496;2023-04-01T07:36:38;3.05;;;2.65;;
351;SDS011;164;50.784;6.496;2023-04-01T07:39:10;0.80;;;0.80;;
351;SDS011;164;50.784;6.496;2023-04-01T07:41:40;1.10;;;1.00;;
351;SDS011;164;50.784;6.496;2023-04-01T07:44:11;1.33;;;1.00;;
351;SDS011;164;50.784;6.496;2023-04-01T07:46:49;1.65;;;0.90;;
351;SDS011;164;50.784;6.496;2023-04-01T07:49:21;0.60;;;0.57;;
351;SDS011;164;50.784;6.496;2023-04-01T07:51:52;0.82;;;0.63;;
351;SDS011;164;50.784;6.496;2023-04-01T07:54:25;0.60;;;0.55;;
351;SDS011;164;50.784;6.496;2023-04-01T07:56:55;1.20;;;1.15;;
351;SDS011;164;50.784;6.496;2023-04-01T07:59:25;0.90;;;0.60;;
351;SDS011;164;50.784;6.496;2023-04-01T08:01:55;0.50;;;0.50;;
351;SDS011;164;50.784;6.496;2023-04-01T08:04:30;0.65;;;0.63;;
351;SDS011;164;50.784;6.496;2023-04-01T08:07:03;0.90;;;0.88;;
351;SDS011;164;50.784;6.496;2023-04-01T08:09:36;0.70;;;0.60;;
351;SDS011;164;50.784;6.496;2023-04-01T08:12:08;0.60;;;0.50;;
351;SDS011;164;50.784;6.496;2023-04-01T08:14:42;0.70;;;0.60;;
351;SDS011;164;50.784;6.496;2023-04-01T08:17:12;0.50;;;0.40;;
351;SDS011;164;50.784;6.496;2023-04-01T08:19:50;0.90;;;0.50;;
351;SDS011;164;50.784;6.496;2023-04-01T08:22:22;0.70;;;0.60;;
351;SDS011;164;50.784;6.496;2023-04-01T08:24:52;0.70;;;0.60;;
351;SDS011;164;50.784;6.496;2023-04-01T08:27:23;1.17;;;0.63;;
351;SDS011;164;50.784;6.496;2023-04-01T08:29:53;1.33;;;0.50;;
351;SDS011;164;50.784;6.496;2023-04-01T08:32:24;1.10;;;0.60;;
351;SDS011;164;50.784;6.496;2023-04-01T08:34:58;0.60;;;0.52;;
351;SDS011;164;50.784;6.496;2023-04-01T08:37:28;1.27;;;0.60;;
351;SDS011;164;50.784;6.496;2023-04-01T08:39:58;0.50;;;0.50;;
351;SDS011;164;50.784;6.496;2023-04-01T08:42:30;0.50;;;0.50;;
351;SDS011;164;50.784;6.496;2023-04-01T08:45:04;0.82;;;0.60;;
351;SDS011;164;50.784;6.496;2023-04-01T08:47:42;0.60;;;0.60;;
351;SDS011;164;50.784;6.496;2023-04-01T08:53:13;1.10;;;0.70;;
351;SDS011;164;50.784;6.496;2023-04-01T08:55:47;0.60;;;0.60;;
351;SDS011;164;50.784;6.496;2023-04-01T09:01:09;0.90;;;0.50;;
351;SDS011;164;50.784;6.496;2023-04-01T09:03:41;0.68;;;0.65;;
351;SDS011;164;50.784;6.496;2023-04-01T09:06:21;0.50;;;0.50;;
351;SDS011;164;50.784;6.496;2023-04-01T09:11:46;0.60;;;0.40;;
351;SDS011;164;50.784;6.496;2023-04-01T09:14:24;0.60;;;0.60;;
351;SDS011;164;50.784;6.496;2023-04-01T09:19:42;0.65;;;0.60;;
351;SDS011;164;50.784;6.496;2023-04-01T09:22:22;1.20;;;1.13;;
351;SDS011;164;50.784;6.496;2023-04-01T09:27:56;0.77;;;0.55;;
351;SDS011;164;50.784;6.496;2023-04-01T09:30:33;2.20;;;2.05;;
351;SDS011;164;50.784;6.496;2023-04-01T09:33:06;0.70;;;0.60;;
351;SDS011;164;50.784;6.496;2023-04-01T09:35:39;0.80;;;0.50;;
351;SDS011;164;50.784;6.496;2023-04-01T09:38:16;0.73;;;0.73;;
351;SDS011;164;50.784;6.496;2023-04-01T09:40:47;0.80;;;0.70;;
351;SDS011;164;50.784;6.496;2023-04-01T09:43:25;2.58;;;0.75;;
351;SDS011;164;50.784;6.496;2023-04-01T09:46:04;0.75;;;0.70;;
351;SDS011;164;50.784;6.496;2023-04-01T09:48:44;1.50;;;0.40;;
351;SDS011;164;50.784;6.496;2023-04-01T09:51:18;0.65;;;0.65;;
351;SDS011;164;50.784;6.496;2023-04-01T09:53:49;0.98;;;0.70;;
351;SDS011;164;50.784;6.496;2023-04-01T10:04:49;0.65;;;0.60;;
351;SDS011;164;50.784;6.496;2023-04-01T10:07:36;1.35;;;0.80;;
351;SDS011;164;50.784;6.496;2023-04-01T10:13:02;0.88;;;0.80;;
351;SDS011;164;50.784;6.496;2023-04-01T10:18:29;0.75;;;0.50;;
351;SDS011;164;50.784;6.496;2023-04-01T10:21:18;0.60;;;0.50;;
351;SDS011;164;50.784;6.496;2023-04-01T10:26:39;0.60;;;0.60;;
351;SDS011;164;50.784;6.496;2023-04-01T10:32:04;0.70;;;0.70;;
351;SDS011;164;50.784;6.496;2023-04-01T10:40:29;0.60;;;0.52;;
351;SDS011;164;50.784;6.496;2023-04-01T10:51:37;0.68;;;0.43;;
351;SDS011;164;50.784;6.496;2023-04-01T10:54:13;2.08;;;0.65;;
351;SDS011;164;50.784;6.496;2023-04-01T10:56:53;0.60;;;0.50;;
351;SDS011;164;50.784;6.496;2023-04-01T10:59:31;1.40;;;0.50;;
351;SDS011;164;50.784;6.496;2023-04-01T11:07:48;0.85;;;0.57;;
351;SDS011;164;50.784;6.496;2023-04-01T11:13:30;0.70;;;0.70;;
351;SDS011;164;50.784;6.496;2023-04-01T11:16:07;0.90;;;0.68;;
351;SDS011;164;50.784;6.496;2023-04-01T11:21:46;0.57;;;0.57;;
351;SDS011;164;50.784;6.496;2023-04-01T11:24:24;1.00;;;0.90;;
351;SDS011;164;50.784;6.496;2023-04-01T11:27:00;1.25;;;0.93;;
351;SDS011;164;50.784;6.496;2023-04-01T11:29:34;0.60;;;0.50;;
351;SDS011;164;50.784;6.496;2023-04-01T11:32:06;1.50;;;0.75;;
351;SDS011;164;50.784;6.496;2023-04-01T11:34:42;0.85;;;0.80;;
351;SDS011;164;50.784;6.496;2023-04-01T11:37:15;0.90;;;0.80;;
351;SDS011;164;50.784;6.496;2023-04-01T11:39:51;1.63;;;1.00;;
351;SDS011;164;50.784;6.496;2023-04-01T11:42:20;0.95;;;0.85;;
351;SDS011;164;50.784;6.496;2023-04-01T11:44:53;0.90;;;0.73;;
351;SDS011;164;50.784;6.496;2023-04-01T11:47:36;1.30;;;0.75;;
351;SDS011;164;50.784;6.496;2023-04-01T11:50:12;0.60;;;0.55;;
351;SDS011;164;50.784;6.496;2023-04-01T11:53:01;0.73;;;0.70;;
351;SDS011;164;50.784;6.496;2023-04-01T11:55:35;0.70;;;0.60;;
351;SDS011;164;50.784;6.496;2023-04-01T11:58:18;0.88;;;0.88;;
351;SDS011;164;50.784;6.496;2023-04-01T12:00:57;0.60;;;0.60;;
351;SDS011;164;50.784;6.496;2023-04-01T12:03:30;0.60;;;0.60;;
351;SDS011;164;50.784;6.496;2023-04-01T12:06:05;0.70;;;0.70;;
351;SDS011;164;50.784;6.496;2023-04-01T12:08:37;0.65;;;0.60;;
351;SDS011;164;50.784;6.496;2023-04-01T12:11:07;0.70;;;0.60;;
351;SDS011;164;50.784;6.496;2023-04-01T12:13:42;0.70;;;0.50;;
351;SDS011;164;50.784;6.496;2023-04-01T12:16:16;0.50;;;0.50;;
351;SDS011;164;50.784;6.496;2023-04-01T12:18:48;1.10;;;0.90;;
351;SDS011;164;50.784;6.496;2023-04-01T12:21:22;1.20;;;0.60;;
351;SDS011;164;50.784;6.496;2023-04-01T12:23:58;0.90;;;0.90;;
351;SDS011;164;50.784;6.496;2023-04-01T12:26:33;1.10;;;0.50;;
351;SDS011;164;50.784;6.496;2023-04-01T12:31:49;0.85;;;0.70;;
351;SDS011;164;50.784;6.496;2023-04-01T12:37:10;0.70;;;0.70;;
351;SDS011;164;50.784;6.496;2023-04-01T12:45:35;1.15;;;1.05;;
351;SDS011;164;50.784;6.496;2023-04-01T12:48:18;0.95;;;0.88;;
351;SDS011;164;50.784;6.496;2023-04-01T12:53:58;1.10;;;1.00;;
351;SDS011;164;50.784;6.496;2023-04-01T12:56:28;0.93;;;0.85;;
351;SDS011;164;50.784;6.496;2023-04-01T12:59:06;0.60;;;0.60;;
351;SDS011;164;50.784;6.496;2023-04-01T13:02:07;0.55;;;0.43;;
351;SDS011;164;50.784;6.496;2023-04-01T13:04:49;0.60;;;0.55;;
351;SDS011;164;50.784;6.496;2023-04-01T13:07:28;0.80;;;0.75;;
351;SDS011;164;50.784;6.496;2023-04-01T13:10:01;0.98;;;0.80;;
351;SDS011;164;50.784;6.496;2023-04-01T13:12:35;0.75;;;0.73;;
351;SDS011;164;50.784;6.496;2023-04-01T13:17:57;1.33;;;1.13;;
351;SDS011;164;50.784;6.496;2023-04-01T13:20:33;1.35;;;1.15;;
351;SDS011;164;50.784;6.496;2023-04-01T13:23:05;1.45;;;1.35;;
351;SDS011;164;50.784;6.496;2023-04-01T13:25:38;1.20;;;1.10;;
351;SDS011;164;50.784;6.496;2023-04-01T13:28:09;1.63;;;1.45;;
351;SDS011;164;50.784;6.496;2023-04-01T13:30:41;1.00;;;0.90;;
351;SDS011;164;50.784;6.496;2023-04-01T13:33:12;1.08;;;1.00;;
351;SDS011;164;50.784;6.496;2023-04-01T13:35:45;2.45;;;1.17;;
351;SDS011;164;50.784;6.496;2023-04-01T13:38:28;2.20;;;1.00;;
351;SDS011;164;50.784;6.496;2023-04-01T13:40:58;0.80;;;0.80;;
351;SDS011;164;50.784;6.496;2023-04-01T13:43:28;1.00;;;0.90;;
351;SDS011;164;50.784;6.496;2023-04-01T13:48:58;1.00;;;0.90;;
351;SDS011;164;50.784;6.496;2023-04-01T13:51:43;1.40;;;1.30;;
351;SDS011;164;50.784;6.496;2023-04-01T13:54:38;1.10;;;1.00;;
351;SDS011;164;50.784;6.496;2023-04-01T13:57:14;0.80;;;0.70;;
351;SDS011;164;50.784;6.496;2023-04-01T13:59:51;1.25;;;0.85;;
351;SDS011;164;50.784;6.496;2023-04-01T14:02:38;1.10;;;1.00;;
351;SDS011;164;50.784;6.496;2023-04-01T14:05:15;0.93;;;0.77;;
351;SDS011;164;50.784;6.496;2023-04-01T14:07:53;1.02;;;0.82;;
351;SDS011;164;50.784;6.496;2023-04-01T14:10:24;1.10;;;0.75;;
351;SDS011;164;50.784;6.496;2023-04-01T14:12:57;1.60;;;1.08;;
351;SDS011;164;50.784;6.496;2023-04-01T14:15:29;1.10;;;1.00;;
351;SDS011;164;50.784;6.496;2023-04-01T14:18:03;1.23;;;0.82;;
351;SDS011;164;50.784;6.496;2023-04-01T14:20:37;0.80;;;0.70;;
351;SDS011;164;50.784;6.496;2023-04-01T14:26:02;1.50;;;1.27;;
351;SDS011;164;50.784;6.496;2023-04-01T14:28:31;1.10;;;1.00;;
351;SDS011;164;50.784;6.496;2023-04-01T14:31:10;0.90;;;0.85;;
351;SDS011;164;50.784;6.496;2023-04-01T14:33:42;0.90;;;0.80;;
351;SDS011;164;50.784;6.496;2023-04-01T14:36:18;1.10;;;1.00;;
351;SDS011;164;50.784;6.496;2023-04-01T14:38:54;2.35;;;1.00;;
351;SDS011;164;50.784;6.496;2023-04-01T14:41:30;1.40;;;0.75;;
351;SDS011;164;50.784;6.496;2023-04-01T14:44:05;1.00;;;0.90;;
351;SDS011;164;50.784;6.496;2023-04-01T14:46:53;1.00;;;0.90;;
351;SDS011;164;50.784;6.496;2023-04-01T14:49:30;1.00;;;0.90;;
351;SDS011;164;50.784;6.496;2023-04-01T14:52:03;0.88;;;0.80;;
351;SDS011;164;50.784;6.496;2023-04-01T14:54:31;0.93;;;0.55;;
351;SDS011;164;50.784;6.496;2023-04-01T14:57:05;0.93;;;0.55;;
351;SDS011;164;50.784;6.496;2023-04-01T14:59:39;0.90;;;0.85;;
351;SDS011;164;50.784;6.496;2023-04-01T15:02:09;0.60;;;0.55;;
351;SDS011;164;50.784;6.496;2023-04-01T15:04:49;1.73;;;0.75;;
351;SDS011;164;50.784;6.496;2023-04-01T15:10:09;0.70;;;0.60;;
351;SDS011;164;50.784;6.496;2023-04-01T15:12:49;0.70;;;0.50;;
351;SDS011;164;50.784;6.496;2023-04-01T15:15:24;1.42;;;0.80;;
351;SDS011;164;50.784;6.496;2023-04-01T15:17:58;0.60;;;0.60;;
351;SDS011;164;50.784;6.496;2023-04-01T15:20:39;0.80;;;0.77;;
351;SDS011;164;50.784;6.496;2023-04-01T15:23:15;1.05;;;0.98;;
351;SDS011;164;50.784;6.496;2023-04-01T15:25:51;1.15;;;0.98;;
351;SDS011;164;50.784;6.496;2023-04-01T15:28:26;1.10;;;1.08;;
351;SDS011;164;50.784;6.496;2023-04-01T15:30:56;0.70;;;0.70;;
351;SDS011;164;50.784;6.496;2023-04-01T15:33:36;0.70;;;0.65;;
351;SDS011;164;50.784;6.496;2023-04-01T15:36:08;0.90;;;0.80;;
351;SDS011;164;50.784;6.496;2023-04-01T15:38:39;0.50;;;0.40;;
351;SDS011;164;50.784;6.496;2023-04-01T15:41:09;0.75;;;0.68;;
351;SDS011;164;50.784;6.496;2023-04-01T15:43:41;0.60;;;0.60;;
351;SDS011;164;50.784;6.496;2023-04-01T15:46:15;1.85;;;0.50;;
351;SDS011;164;50.784;6.496;2023-04-01T15:48:50;0.90;;;0.50;;
351;SDS011;164;50.784;6.496;2023-04-01T15:51:28;0.50;;;0.50;;
351;SDS011;164;50.784;6.496;2023-04-01T15:56:50;0.60;;;0.60;;
351;SDS011;164;50.784;6.496;2023-04-01T15:59:23;0.98;;;0.93;;
351;SDS011;164;50.784;6.496;2023-04-01T16:01:58;0.68;;;0.57;;
351;SDS011;164;50.784;6.496;2023-04-01T16:04:37;0.75;;;0.70;;
351;SDS011;164;50.784;6.496;2023-04-01T16:07:09;0.50;;;0.50;;
351;SDS011;164;50.784;6.496;2023-04-01T16:09:48;0.90;;;0.80;;
351;SDS011;164;50.784;6.496;2023-04-01T16:12:23;2.25;;;0.90;;
351;SDS011;164;50.784;6.496;2023-04-01T16:15:00;0.70;;;0.70;;
351;SDS011;164;50.784;6.496;2023-04-01T16:17:33;2.95;;;1.05;;
351;SDS011;164;50.784;6.496;2023-04-01T16:20:06;1.15;;;1.00;;
351;SDS011;164;50.784;6.496;2023-04-01T16:22:44;0.70;;;0.65;;
351;SDS011;164;50.784;6.496;2023-04-01T16:25:21;0.82;;;0.82;;
351;SDS011;164;50.784;6.496;2023-04-01T16:27:58;1.00;;;0.73;;
351;SDS011;164;50.784;6.496;2023-04-01T16:30:35;0.77;;;0.75;;
351;SDS011;164;50.784;6.496;2023-04-01T16:33:10;0.85;;;0.65;;
351;SDS011;164;50.784;6.496;2023-04-01T16:35:41;1.45;;;1.13;;
351;SDS011;164;50.784;6.496;2023-04-01T16:38:12;1.60;;;1.50;;
351;SDS011;164;50.784;6.496;2023-04-01T16:40:43;1.30;;;1.20;;
351;SDS011;164;50.784;6.496;2023-04-01T16:43:13;1.20;;;1.10;;
351;SDS011;164;50.784;6.496;2023-04-01T16:45:45;1.50;;;1.40;;
351;SDS011;164;50.784;6.496;2023-04-01T16:48:15;1.30;;;1.20;;
351;SDS011;164;50.784;6.496;2023-04-01T16:50:52;2.20;;;1.67;;
351;SDS011;164;50.784;6.496;2023-04-01T16:53:22;1.35;;;1.25;;
351;SDS011;164;50.784;6.496;2023-04-01T16:55:54;2.05;;;1.92;;
351;SDS011;164;50.784;6.496;2023-04-01T16:58:26;1.95;;;1.85;;
351;SDS011;164;50.784;6.496;2023-04-01T17:00:58;2.40;;;2.20;;
351;SDS011;164;50.784;6.496;2023-04-01T17:03:28;2.42;;;2.22;;
351;SDS011;164;50.784;6.496;2023-04-01T17:06:03;2.90;;;2.70;;
351;SDS011;164;50.784;6.496;2023-04-01T17:08:37;2.10;;;1.95;;
351;SDS011;164;50.784;6.496;2023-04-01T17:11:07;2.85;;;2.03;;
351;SDS011;164;50.784;6.496;2023-04-01T17:13:40;2.45;;;2.25;;
351;SDS011;164;50.784;6.496;2023-04-01T17:16:19;1.30;;;1.20;;
351;SDS011;164;50.784;6.496;2023-04-01T17:18:53;2.85;;;2.00;;
351;SDS011;164;50.784;6.496;2023-04-01T17:21:24;1.88;;;1.77;;
351;SDS011;164;50.784;6.496;2023-04-01T17:23:52;1.60;;;1.50;;
351;SDS011;164;50.784;6.496;2023-04-01T17:26:22;1.50;;;1.40;;
351;SDS011;164;50.784;6.496;2023-04-01T17:28:56;1.90;;;1.80;;
351;SDS011;164;50.784;6.496;2023-04-01T17:31:33;2.35;;;1.80;;
351;SDS011;164;50.784;6.496;2023-04-01T17:34:14;2.42;;;2.22;;
351;SDS011;164;50.784;6.496;2023-04-01T17:36:48;2.45;;;2.25;;
351;SDS011;164;50.784;6.496;2023-04-01T17:39:22;3.60;;;3.40;;
351;SDS011;164;50.784;6.496;2023-04-01T17:41:53;2.10;;;1.95;;
351;SDS011;164;50.784;6.496;2023-04-01T17:44:25;2.38;;;2.17;;
351;SDS011;164;50.784;6.496;2023-04-01T17:47:13;2.95;;;2.75;;
351;SDS011;164;50.784;6.496;2023-04-01T17:49:49;3.65;;;3.45;;
351;SDS011;164;50.784;6.496;2023-04-01T17:52:20;3.13;;;2.92;;
351;SDS011;164;50.784;6.496;2023-04-01T17:54:52;3.35;;;3.15;;
351;SDS011;164;50.784;6.496;2023-04-01T17:57:25;2.75;;;2.55;;
351;SDS011;164;50.784;6.496;2023-04-01T17:59:57;3.50;;;3.30;;